sensor_id;sensor_type;location;lat;lon;timestamp;P1;durP1;ratioP1;P2;durP2;ratioP2
77099;SDS011;66602;48.922;2.414;2024-01-30T00:00:47;7.22;;;6.72;;
77099;SDS011;66602;48.922;2.414;2024-01-30T00:03:13;6.30;;;5.80;;
77099;SDS011;66602;48.922;2.414;2024-01-30T00:06:07;10.60;;;6.15;;
77099;SDS011;66602;48.922;2.414;2024-01-30T00:09:06;7.13;;;6.63;;
77099;SDS011;66602;48.922;2.414;2024-01-30T00:11:32;6.35;;;5.85;;
77099;SDS011;66602;48.922;2.414;2024-01-30T00:13:57;8.10;;;7.40;;
77099;SDS011;66602;48.922;2.414;2024-01-30T00:16:46;6.72;;;6.32;;
77099;SDS011;66602;48.922;2.414;2024-01-30T00:19:21;8.75;;;8.13;;
77099;SDS011;66602;48.922;2.414;2024-01-30T00:21:47;8.68;;;6.95;;
77099;SDS011;66602;48.922;2.414;2024-01-30T00:24:36;8.15;;;7.40;;
77099;SDS011;66602;48.922;2.414;2024-01-30T00:27:46;7.20;;;6.50;;
77099;SDS011;66602;48.922;2.414;2024-01-30T00:30:17;10.20;;;6.35;;
77099;SDS011;66602;48.922;2.414;2024-01-30T00:33:05;7.07;;;6.57;;
77099;SDS011;66602;48.922;2.414;2024-01-30T00:35:31;7.55;;;6.15;;
77099;SDS011;66602;48.922;2.414;2024-01-30T00:38:00;8.35;;;7.57;;
77099;SDS011;66602;48.922;2.414;2024-01-30T00:40:31;6.60;;;6.10;;
77099;SDS011;66602;48.922;2.414;2024-01-30T00:42:59;7.03;;;6.32;;
77099;SDS011;66602;48.922;2.414;2024-01-30T00:45:28;6.88;;;6.28;;
77099;SDS011;66602;48.922;2.414;2024-01-30T00:47:56;7.45;;;6.78;;
77099;SDS011;66602;48.922;2.414;2024-01-30T00:50:22;7.03;;;6.43;;
77099;SDS011;66602;48.922;2.414;2024-01-30T00:52:49;8.50;;;6.63;;
77099;SDS011;66602;48.922;2.414;2024-01-30T00:55:41;6.82;;;6.32;;
77099;SDS011;66602;48.922;2.414;2024-01-30T00:58:07;6.57;;;6.07;;
77099;SDS011;66602;48.922;2.414;2024-01-30T01:00:33;6.85;;;6.43;;
77099;SDS011;66602;48.922;2.414;2024-01-30T01:03:01;10.48;;;6.82;;
77099;SDS011;66602;48.922;2.414;2024-01-30T01:05:36;7.95;;;7.28;;
77099;SDS011;66602;48.922;2.414;2024-01-30T01:08:03;6.45;;;6.05;;
77099;SDS011;66602;48.922;2.414;2024-01-30T01:10:33;7.18;;;6.55;;
77099;SDS011;66602;48.922;2.414;2024-01-30T01:13:17;8.30;;;6.63;;
77099;SDS011;66602;48.922;2.414;2024-01-30T01:15:45;6.93;;;6.30;;
77099;SDS011;66602;48.922;2.414;2024-01-30T01:18:13;17.30;;;7.38;;
77099;SDS011;66602;48.922;2.414;2024-01-30T01:20:43;7.13;;;6.50;;
77099;SDS011;66602;48.922;2.414;2024-01-30T01:23:10;7.32;;;6.53;;
77099;SDS011;66602;48.922;2.414;2024-01-30T01:25:36;7.20;;;6.07;;
77099;SDS011;66602;48.922;2.414;2024-01-30T01:28:04;6.90;;;6.47;;
77099;SDS011;66602;48.922;2.414;2024-01-30T01:30:33;7.10;;;6.28;;
77099;SDS011;66602;48.922;2.414;2024-01-30T01:33:00;6.68;;;6.15;;
77099;SDS011;66602;48.922;2.414;2024-01-30T01:35:27;7.68;;;6.90;;
77099;SDS011;66602;48.922;2.414;2024-01-30T01:37:53;7.03;;;6.28;;
77099;SDS011;66602;48.922;2.414;2024-01-30T01:40:27;7.13;;;6.63;;
77099;SDS011;66602;48.922;2.414;2024-01-30T01:42:55;8.40;;;6.63;;
77099;SDS011;66602;48.922;2.414;2024-01-30T01:45:22;7.15;;;6.65;;
77099;SDS011;66602;48.922;2.414;2024-01-30T01:47:52;6.28;;;5.78;;
77099;SDS011;66602;48.922;2.414;2024-01-30T01:50:19;7.30;;;6.63;;
77099;SDS011;66602;48.922;2.414;2024-01-30T01:52:47;6.63;;;5.95;;
77099;SDS011;66602;48.922;2.414;2024-01-30T01:55:13;6.40;;;5.88;;
77099;SDS011;66602;48.922;2.414;2024-01-30T01:57:39;6.25;;;5.75;;
77099;SDS011;66602;48.922;2.414;2024-01-30T02:00:05;6.10;;;5.57;;
77099;SDS011;66602;48.922;2.414;2024-01-30T02:02:32;6.47;;;5.95;;
77099;SDS011;66602;48.922;2.414;2024-01-30T02:05:00;6.13;;;5.70;;
77099;SDS011;66602;48.922;2.414;2024-01-30T02:07:26;6.32;;;5.82;;
77099;SDS011;66602;48.922;2.414;2024-01-30T02:09:54;6.97;;;6.43;;
77099;SDS011;66602;48.922;2.414;2024-01-30T02:12:30;5.97;;;5.38;;
77099;SDS011;66602;48.922;2.414;2024-01-30T02:14:56;6.90;;;6.25;;
77099;SDS011;66602;48.922;2.414;2024-01-30T02:17:21;7.05;;;5.75;;
77099;SDS011;66602;48.922;2.414;2024-01-30T02:19:49;7.55;;;6.15;;
77099;SDS011;66602;48.922;2.414;2024-01-30T02:22:16;9.55;;;6.10;;
77099;SDS011;66602;48.922;2.414;2024-01-30T02:24:42;5.88;;;5.32;;
77099;SDS011;66602;48.922;2.414;2024-01-30T02:27:08;6.60;;;6.10;;
77099;SDS011;66602;48.922;2.414;2024-01-30T02:29:33;6.70;;;6.20;;
77099;SDS011;66602;48.922;2.414;2024-01-30T02:31:59;6.18;;;5.63;;
77099;SDS011;66602;48.922;2.414;2024-01-30T02:34:24;5.47;;;5.18;;
77099;SDS011;66602;48.922;2.414;2024-01-30T02:36:50;6.78;;;5.57;;
77099;SDS011;66602;48.922;2.414;2024-01-30T02:39:15;6.20;;;5.80;;
77099;SDS011;66602;48.922;2.414;2024-01-30T02:41:41;6.07;;;5.57;;
77099;SDS011;66602;48.922;2.414;2024-01-30T02:44:06;7.82;;;5.95;;
77099;SDS011;66602;48.922;2.414;2024-01-30T02:46:32;6.15;;;5.63;;
77099;SDS011;66602;48.922;2.414;2024-01-30T02:48:57;5.40;;;5.10;;
77099;SDS011;66602;48.922;2.414;2024-01-30T02:51:24;6.88;;;6.22;;
77099;SDS011;66602;48.922;2.414;2024-01-30T02:53:50;5.65;;;5.10;;
77099;SDS011;66602;48.922;2.414;2024-01-30T02:56:17;6.88;;;6.22;;
77099;SDS011;66602;48.922;2.414;2024-01-30T02:58:43;6.68;;;6.07;;
77099;SDS011;66602;48.922;2.414;2024-01-30T03:01:08;18.52;;;5.95;;
77099;SDS011;66602;48.922;2.414;2024-01-30T03:03:34;6.22;;;5.72;;
77099;SDS011;66602;48.922;2.414;2024-01-30T03:06:01;5.60;;;5.30;;
77099;SDS011;66602;48.922;2.414;2024-01-30T03:08:27;5.93;;;5.55;;
77099;SDS011;66602;48.922;2.414;2024-01-30T03:10:53;5.63;;;5.15;;
77099;SDS011;66602;48.922;2.414;2024-01-30T03:13:21;6.43;;;5.82;;
77099;SDS011;66602;48.922;2.414;2024-01-30T03:15:48;6.50;;;5.90;;
77099;SDS011;66602;48.922;2.414;2024-01-30T03:18:13;10.40;;;6.07;;
77099;SDS011;66602;48.922;2.414;2024-01-30T03:20:40;6.38;;;5.88;;
77099;SDS011;66602;48.922;2.414;2024-01-30T03:23:06;6.15;;;5.47;;
77099;SDS011;66602;48.922;2.414;2024-01-30T03:25:31;5.85;;;5.45;;
77099;SDS011;66602;48.922;2.414;2024-01-30T03:27:57;5.45;;;5.03;;
77099;SDS011;66602;48.922;2.414;2024-01-30T03:30:22;6.72;;;6.07;;
77099;SDS011;66602;48.922;2.414;2024-01-30T03:32:48;5.93;;;5.53;;
77099;SDS011;66602;48.922;2.414;2024-01-30T03:35:15;9.70;;;6.63;;
77099;SDS011;66602;48.922;2.414;2024-01-30T03:37:41;5.78;;;5.38;;
77099;SDS011;66602;48.922;2.414;2024-01-30T03:40:09;6.05;;;5.63;;
77099;SDS011;66602;48.922;2.414;2024-01-30T03:42:38;5.63;;;5.22;;
77099;SDS011;66602;48.922;2.414;2024-01-30T03:45:04;6.75;;;5.55;;
77099;SDS011;66602;48.922;2.414;2024-01-30T03:47:30;6.30;;;5.70;;
77099;SDS011;66602;48.922;2.414;2024-01-30T03:49:56;5.95;;;5.50;;
77099;SDS011;66602;48.922;2.414;2024-01-30T03:52:22;6.28;;;5.68;;
77099;SDS011;66602;48.922;2.414;2024-01-30T03:54:47;5.78;;;5.22;;
77099;SDS011;66602;48.922;2.414;2024-01-30T03:57:14;7.35;;;5.80;;
77099;SDS011;66602;48.922;2.414;2024-01-30T03:59:41;6.65;;;6.05;;
77099;SDS011;66602;48.922;2.414;2024-01-30T04:02:07;5.38;;;4.97;;
77099;SDS011;66602;48.922;2.414;2024-01-30T04:04:33;5.68;;;5.07;;
77099;SDS011;66602;48.922;2.414;2024-01-30T04:06:59;5.97;;;5.68;;
77099;SDS011;66602;48.922;2.414;2024-01-30T04:09:24;5.80;;;5.15;;
77099;SDS011;66602;48.922;2.414;2024-01-30T04:11:53;7.75;;;6.00;;
77099;SDS011;66602;48.922;2.414;2024-01-30T04:14:19;6.75;;;5.65;;
77099;SDS011;66602;48.922;2.414;2024-01-30T04:16:45;6.40;;;5.53;;
77099;SDS011;66602;48.922;2.414;2024-01-30T04:19:10;5.97;;;5.57;;
77099;SDS011;66602;48.922;2.414;2024-01-30T04:21:36;5.88;;;5.18;;
77099;SDS011;66602;48.922;2.414;2024-01-30T04:24:02;4.93;;;4.53;;
77099;SDS011;66602;48.922;2.414;2024-01-30T04:26:28;6.70;;;5.90;;
77099;SDS011;66602;48.922;2.414;2024-01-30T04:28:53;5.53;;;5.20;;
77099;SDS011;66602;48.922;2.414;2024-01-30T04:31:36;6.53;;;5.63;;
77099;SDS011;66602;48.922;2.414;2024-01-30T04:34:03;11.00;;;5.97;;
77099;SDS011;66602;48.922;2.414;2024-01-30T04:36:29;6.75;;;6.15;;
77099;SDS011;66602;48.922;2.414;2024-01-30T04:38:55;6.03;;;5.43;;
77099;SDS011;66602;48.922;2.414;2024-01-30T04:41:21;5.88;;;4.93;;
77099;SDS011;66602;48.922;2.414;2024-01-30T04:43:48;11.10;;;5.47;;
77099;SDS011;66602;48.922;2.414;2024-01-30T04:46:13;5.10;;;4.80;;
77099;SDS011;66602;48.922;2.414;2024-01-30T04:48:39;6.40;;;5.80;;
77099;SDS011;66602;48.922;2.414;2024-01-30T04:51:04;10.57;;;6.28;;
77099;SDS011;66602;48.922;2.414;2024-01-30T04:53:30;8.95;;;7.97;;
77099;SDS011;66602;48.922;2.414;2024-01-30T04:55:57;8.35;;;7.65;;
77099;SDS011;66602;48.922;2.414;2024-01-30T04:58:23;11.82;;;8.65;;
77099;SDS011;66602;48.922;2.414;2024-01-30T05:00:50;7.65;;;7.13;;
77099;SDS011;66602;48.922;2.414;2024-01-30T05:03:17;11.70;;;7.05;;
77099;SDS011;66602;48.922;2.414;2024-01-30T05:05:48;8.80;;;7.32;;
77099;SDS011;66602;48.922;2.414;2024-01-30T05:08:15;7.28;;;6.53;;
77099;SDS011;66602;48.922;2.414;2024-01-30T05:10:42;10.35;;;6.05;;
77099;SDS011;66602;48.922;2.414;2024-01-30T05:13:09;6.15;;;5.68;;
77099;SDS011;66602;48.922;2.414;2024-01-30T05:15:35;5.95;;;5.55;;
77099;SDS011;66602;48.922;2.414;2024-01-30T05:18:01;5.78;;;5.38;;
77099;SDS011;66602;48.922;2.414;2024-01-30T05:20:33;6.97;;;5.22;;
77099;SDS011;66602;48.922;2.414;2024-01-30T05:23:22;6.07;;;5.20;;
77099;SDS011;66602;48.922;2.414;2024-01-30T05:25:47;6.75;;;6.15;;
77099;SDS011;66602;48.922;2.414;2024-01-30T05:28:16;5.88;;;5.53;;
77099;SDS011;66602;48.922;2.414;2024-01-30T05:30:41;9.55;;;5.38;;
77099;SDS011;66602;48.922;2.414;2024-01-30T05:33:08;5.47;;;4.97;;
77099;SDS011;66602;48.922;2.414;2024-01-30T05:35:35;6.05;;;5.45;;
77099;SDS011;66602;48.922;2.414;2024-01-30T05:38:01;7.07;;;6.43;;
77099;SDS011;66602;48.922;2.414;2024-01-30T05:40:31;8.10;;;5.78;;
77099;SDS011;66602;48.922;2.414;2024-01-30T05:42:56;6.75;;;5.25;;
77099;SDS011;66602;48.922;2.414;2024-01-30T05:45:27;8.75;;;5.40;;
77099;SDS011;66602;48.922;2.414;2024-01-30T05:47:56;5.68;;;5.18;;
77099;SDS011;66602;48.922;2.414;2024-01-30T05:50:23;7.18;;;5.82;;
77099;SDS011;66602;48.922;2.414;2024-01-30T05:52:50;6.43;;;5.38;;
77099;SDS011;66602;48.922;2.414;2024-01-30T05:55:15;8.15;;;5.10;;
77099;SDS011;66602;48.922;2.414;2024-01-30T05:57:41;10.07;;;6.13;;
77099;SDS011;66602;48.922;2.414;2024-01-30T06:00:07;6.25;;;5.68;;
77099;SDS011;66602;48.922;2.414;2024-01-30T06:02:33;7.72;;;4.68;;
77099;SDS011;66602;48.922;2.414;2024-01-30T06:04:59;6.93;;;5.10;;
77099;SDS011;66602;48.922;2.414;2024-01-30T06:07:27;7.40;;;6.03;;
77099;SDS011;66602;48.922;2.414;2024-01-30T06:09:53;8.07;;;5.07;;
77099;SDS011;66602;48.922;2.414;2024-01-30T06:12:19;5.57;;;5.20;;
77099;SDS011;66602;48.922;2.414;2024-01-30T06:14:48;10.23;;;5.78;;
77099;SDS011;66602;48.922;2.414;2024-01-30T06:17:52;7.47;;;5.15;;
77099;SDS011;66602;48.922;2.414;2024-01-30T06:20:45;6.85;;;4.90;;
77099;SDS011;66602;48.922;2.414;2024-01-30T06:59:36;5.82;;;4.72;;
77099;SDS011;66602;48.922;2.414;2024-01-30T07:03:07;6.63;;;5.45;;
77099;SDS011;66602;48.922;2.414;2024-01-30T07:05:36;7.60;;;5.35;;
77099;SDS011;66602;48.922;2.414;2024-01-30T07:08:43;6.30;;;5.57;;
77099;SDS011;66602;48.922;2.414;2024-01-30T07:11:48;11.27;;;5.50;;
77099;SDS011;66602;48.922;2.414;2024-01-30T07:15:10;21.92;;;5.68;;
77099;SDS011;66602;48.922;2.414;2024-01-30T07:18:06;18.13;;;5.90;;
77099;SDS011;66602;48.922;2.414;2024-01-30T07:25:05;8.18;;;6.07;;
77099;SDS011;66602;48.922;2.414;2024-01-30T07:28:16;8.60;;;5.63;;
77099;SDS011;66602;48.922;2.414;2024-01-30T07:30:45;11.70;;;6.07;;
77099;SDS011;66602;48.922;2.414;2024-01-30T07:37:40;9.63;;;5.75;;
77099;SDS011;66602;48.922;2.414;2024-01-30T07:40:59;7.45;;;5.53;;
77099;SDS011;66602;48.922;2.414;2024-01-30T07:43:42;12.85;;;6.10;;
77099;SDS011;66602;48.922;2.414;2024-01-30T07:51:37;11.70;;;5.88;;
77099;SDS011;66602;48.922;2.414;2024-01-30T07:54:26;10.70;;;5.22;;
77099;SDS011;66602;48.922;2.414;2024-01-30T08:00:07;8.48;;;5.47;;
77099;SDS011;66602;48.922;2.414;2024-01-30T08:03:42;15.48;;;6.50;;
77099;SDS011;66602;48.922;2.414;2024-01-30T08:07:02;6.65;;;6.00;;
77099;SDS011;66602;48.922;2.414;2024-01-30T08:13:53;7.50;;;5.65;;
77099;SDS011;66602;48.922;2.414;2024-01-30T08:17:08;13.18;;;6.00;;
77099;SDS011;66602;48.922;2.414;2024-01-30T08:20:36;17.75;;;6.05;;
77099;SDS011;66602;48.922;2.414;2024-01-30T08:24:08;9.88;;;5.90;;
77099;SDS011;66602;48.922;2.414;2024-01-30T08:27:29;10.77;;;5.93;;
77099;SDS011;66602;48.922;2.414;2024-01-30T08:30:19;9.35;;;5.97;;
77099;SDS011;66602;48.922;2.414;2024-01-30T08:34:12;9.30;;;6.50;;
77099;SDS011;66602;48.922;2.414;2024-01-30T08:36:40;12.57;;;6.30;;
77099;SDS011;66602;48.922;2.414;2024-01-30T08:39:26;6.63;;;5.90;;
77099;SDS011;66602;48.922;2.414;2024-01-30T08:41:55;10.30;;;6.65;;
77099;SDS011;66602;48.922;2.414;2024-01-30T08:45:12;8.25;;;6.82;;
77099;SDS011;66602;48.922;2.414;2024-01-30T08:48:42;8.50;;;5.75;;
77099;SDS011;66602;48.922;2.414;2024-01-30T08:52:04;13.02;;;7.53;;
77099;SDS011;66602;48.922;2.414;2024-01-30T08:55:38;10.88;;;6.05;;
77099;SDS011;66602;48.922;2.414;2024-01-30T08:58:27;8.48;;;5.55;;
77099;SDS011;66602;48.922;2.414;2024-01-30T09:01:33;12.90;;;5.60;;
77099;SDS011;66602;48.922;2.414;2024-01-30T09:04:21;10.98;;;5.40;;
77099;SDS011;66602;48.922;2.414;2024-01-30T09:06:48;12.23;;;5.43;;
77099;SDS011;66602;48.922;2.414;2024-01-30T09:09:34;8.50;;;5.35;;
77099;SDS011;66602;48.922;2.414;2024-01-30T09:12:07;5.88;;;5.38;;
77099;SDS011;66602;48.922;2.414;2024-01-30T09:15:38;6.93;;;4.85;;
77099;SDS011;66602;48.922;2.414;2024-01-30T09:18:16;6.70;;;5.03;;
77099;SDS011;66602;48.922;2.414;2024-01-30T09:21:12;10.32;;;5.50;;
77099;SDS011;66602;48.922;2.414;2024-01-30T09:29:34;7.30;;;4.45;;
77099;SDS011;66602;48.922;2.414;2024-01-30T09:32:01;12.00;;;5.35;;
77099;SDS011;66602;48.922;2.414;2024-01-30T09:34:27;14.73;;;5.30;;
77099;SDS011;66602;48.922;2.414;2024-01-30T09:36:52;7.32;;;5.03;;
77099;SDS011;66602;48.922;2.414;2024-01-30T09:39:18;6.10;;;5.50;;
77099;SDS011;66602;48.922;2.414;2024-01-30T09:41:48;22.67;;;5.97;;
77099;SDS011;66602;48.922;2.414;2024-01-30T09:44:17;15.73;;;5.78;;
77099;SDS011;66602;48.922;2.414;2024-01-30T09:46:46;11.85;;;5.78;;
77099;SDS011;66602;48.922;2.414;2024-01-30T09:49:15;14.00;;;6.00;;
77099;SDS011;66602;48.922;2.414;2024-01-30T09:51:44;10.45;;;6.60;;
77099;SDS011;66602;48.922;2.414;2024-01-30T09:54:10;10.80;;;5.45;;
77099;SDS011;66602;48.922;2.414;2024-01-30T09:56:40;11.52;;;6.05;;
77099;SDS011;66602;48.922;2.414;2024-01-30T09:59:06;11.18;;;7.05;;
77099;SDS011;66602;48.922;2.414;2024-01-30T10:01:31;15.38;;;5.85;;
77099;SDS011;66602;48.922;2.414;2024-01-30T10:03:59;6.03;;;5.53;;
77099;SDS011;66602;48.922;2.414;2024-01-30T10:06:25;7.28;;;5.88;;
77099;SDS011;66602;48.922;2.414;2024-01-30T10:08:52;12.52;;;6.03;;
77099;SDS011;66602;48.922;2.414;2024-01-30T10:11:17;14.35;;;7.43;;
77099;SDS011;66602;48.922;2.414;2024-01-30T10:13:43;14.45;;;6.07;;
77099;SDS011;66602;48.922;2.414;2024-01-30T10:16:08;12.23;;;6.45;;
77099;SDS011;66602;48.922;2.414;2024-01-30T10:18:34;6.90;;;5.80;;
77099;SDS011;66602;48.922;2.414;2024-01-30T10:20:59;14.45;;;5.57;;
77099;SDS011;66602;48.922;2.414;2024-01-30T10:23:25;9.73;;;6.63;;
77099;SDS011;66602;48.922;2.414;2024-01-30T10:25:51;9.32;;;5.32;;
77099;SDS011;66602;48.922;2.414;2024-01-30T10:28:17;9.60;;;5.10;;
77099;SDS011;66602;48.922;2.414;2024-01-30T10:30:43;7.07;;;4.75;;
77099;SDS011;66602;48.922;2.414;2024-01-30T10:33:08;9.05;;;5.07;;
77099;SDS011;66602;48.922;2.414;2024-01-30T10:35:34;12.18;;;5.38;;
77099;SDS011;66602;48.922;2.414;2024-01-30T10:38:00;9.75;;;5.07;;
77099;SDS011;66602;48.922;2.414;2024-01-30T10:40:28;5.32;;;4.03;;
77099;SDS011;66602;48.922;2.414;2024-01-30T10:42:55;5.72;;;4.50;;
77099;SDS011;66602;48.922;2.414;2024-01-30T10:45:21;8.38;;;4.20;;
77099;SDS011;66602;48.922;2.414;2024-01-30T10:47:52;8.77;;;4.00;;
77099;SDS011;66602;48.922;2.414;2024-01-30T10:50:19;5.85;;;4.68;;
77099;SDS011;66602;48.922;2.414;2024-01-30T10:52:45;7.22;;;3.85;;
77099;SDS011;66602;48.922;2.414;2024-01-30T10:55:12;6.03;;;4.05;;
77099;SDS011;66602;48.922;2.414;2024-01-30T10:57:40;11.15;;;5.28;;
77099;SDS011;66602;48.922;2.414;2024-01-30T11:00:07;9.50;;;4.07;;
77099;SDS011;66602;48.922;2.414;2024-01-30T11:02:36;7.38;;;4.60;;
77099;SDS011;66602;48.922;2.414;2024-01-30T11:05:04;14.68;;;4.93;;
77099;SDS011;66602;48.922;2.414;2024-01-30T11:07:30;12.48;;;5.75;;
77099;SDS011;66602;48.922;2.414;2024-01-30T11:12:28;10.20;;;5.43;;
77099;SDS011;66602;48.922;2.414;2024-01-30T11:15:04;11.90;;;5.38;;
77099;SDS011;66602;48.922;2.414;2024-01-30T11:17:40;12.32;;;6.07;;
77099;SDS011;66602;48.922;2.414;2024-01-30T11:20:22;10.85;;;5.97;;
77099;SDS011;66602;48.922;2.414;2024-01-30T11:22:51;8.55;;;6.05;;
77099;SDS011;66602;48.922;2.414;2024-01-30T11:25:19;10.88;;;5.85;;
77099;SDS011;66602;48.922;2.414;2024-01-30T11:27:46;8.73;;;4.78;;
77099;SDS011;66602;48.922;2.414;2024-01-30T11:35:31;14.05;;;3.20;;
77099;SDS011;66602;48.922;2.414;2024-01-30T11:37:58;7.38;;;2.92;;
77099;SDS011;66602;48.922;2.414;2024-01-30T11:40:26;7.18;;;2.60;;
77099;SDS011;66602;48.922;2.414;2024-01-30T11:42:54;13.55;;;2.47;;
77099;SDS011;66602;48.922;2.414;2024-01-30T11:45:20;3.40;;;2.20;;
77099;SDS011;66602;48.922;2.414;2024-01-30T11:47:45;3.97;;;2.40;;
77099;SDS011;66602;48.922;2.414;2024-01-30T11:50:11;3.15;;;2.85;;
77099;SDS011;66602;48.922;2.414;2024-01-30T11:52:37;7.40;;;2.60;;
77099;SDS011;66602;48.922;2.414;2024-01-30T11:55:03;6.55;;;2.97;;
77099;SDS011;66602;48.922;2.414;2024-01-30T11:57:29;5.88;;;2.60;;
77099;SDS011;66602;48.922;2.414;2024-01-30T11:59:54;5.97;;;2.67;;
77099;SDS011;66602;48.922;2.414;2024-01-30T12:02:20;7.97;;;2.78;;
77099;SDS011;66602;48.922;2.414;2024-01-30T12:04:45;3.28;;;1.98;;
77099;SDS011;66602;48.922;2.414;2024-01-30T12:07:11;6.20;;;2.42;;
77099;SDS011;66602;48.922;2.414;2024-01-30T13:47:35;3.95;;;1.90;;
77099;SDS011;66602;48.922;2.414;2024-01-30T13:50:02;6.78;;;3.00;;
77099;SDS011;66602;48.922;2.414;2024-01-30T13:52:28;12.48;;;3.15;;
77099;SDS011;66602;48.922;2.414;2024-01-30T13:54:53;2.35;;;1.55;;
77099;SDS011;66602;48.922;2.414;2024-01-30T13:57:19;4.05;;;2.15;;
77099;SDS011;66602;48.922;2.414;2024-01-30T13:59:46;3.72;;;2.45;;
77099;SDS011;66602;48.922;2.414;2024-01-30T14:02:12;2.28;;;1.35;;
77099;SDS011;66602;48.922;2.414;2024-01-30T14:04:38;2.00;;;1.90;;
77099;SDS011;66602;48.922;2.414;2024-01-30T14:07:07;3.15;;;1.90;;
77099;SDS011;66602;48.922;2.414;2024-01-30T14:09:33;2.45;;;1.30;;
77099;SDS011;66602;48.922;2.414;2024-01-30T14:11:59;1.42;;;1.30;;
77099;SDS011;66602;48.922;2.414;2024-01-30T14:14:24;4.72;;;2.00;;
77099;SDS011;66602;48.922;2.414;2024-01-30T14:16:50;3.88;;;1.73;;
77099;SDS011;66602;48.922;2.414;2024-01-30T14:19:16;3.10;;;1.73;;
77099;SDS011;66602;48.922;2.414;2024-01-30T14:21:43;2.45;;;1.33;;
77099;SDS011;66602;48.922;2.414;2024-01-30T14:24:08;1.42;;;1.38;;
77099;SDS011;66602;48.922;2.414;2024-01-30T14:26:35;1.88;;;1.77;;
77099;SDS011;66602;48.922;2.414;2024-01-30T14:29:01;2.40;;;1.77;;
77099;SDS011;66602;48.922;2.414;2024-01-30T14:31:27;5.22;;;1.30;;
77099;SDS011;66602;48.922;2.414;2024-01-30T14:33:53;7.50;;;1.83;;
77099;SDS011;66602;48.922;2.414;2024-01-30T14:36:20;2.40;;;1.58;;
77099;SDS011;66602;48.922;2.414;2024-01-30T14:38:45;5.35;;;1.60;;
77099;SDS011;66602;48.922;2.414;2024-01-30T14:41:12;4.57;;;4.05;;
77099;SDS011;66602;48.922;2.414;2024-01-30T14:43:37;3.17;;;2.45;;
77099;SDS011;66602;48.922;2.414;2024-01-30T14:46:03;2.05;;;1.70;;
77099;SDS011;66602;48.922;2.414;2024-01-30T14:48:32;3.28;;;1.80;;
77099;SDS011;66602;48.922;2.414;2024-01-30T14:50:58;1.55;;;1.45;;
77099;SDS011;66602;48.922;2.414;2024-01-30T14:53:27;1.10;;;1.10;;
77099;SDS011;66602;48.922;2.414;2024-01-30T14:55:54;2.42;;;1.85;;
77099;SDS011;66602;48.922;2.414;2024-01-30T14:58:20;3.42;;;2.58;;
77099;SDS011;66602;48.922;2.414;2024-01-30T15:00:45;4.60;;;1.80;;
77099;SDS011;66602;48.922;2.414;2024-01-30T15:03:11;16.27;;;2.40;;
77099;SDS011;66602;48.922;2.414;2024-01-30T15:05:44;5.80;;;2.08;;
77099;SDS011;66602;48.922;2.414;2024-01-30T15:08:09;4.93;;;1.55;;
77099;SDS011;66602;48.922;2.414;2024-01-30T15:10:38;7.50;;;1.85;;
77099;SDS011;66602;48.922;2.414;2024-01-30T15:13:04;3.65;;;1.63;;
77099;SDS011;66602;48.922;2.414;2024-01-30T15:15:29;11.02;;;2.50;;
77099;SDS011;66602;48.922;2.414;2024-01-30T15:17:56;2.75;;;1.83;;
77099;SDS011;66602;48.922;2.414;2024-01-30T15:20:23;1.52;;;1.42;;
77099;SDS011;66602;48.922;2.414;2024-01-30T15:22:49;7.05;;;2.80;;
77099;SDS011;66602;48.922;2.414;2024-01-30T15:25:14;3.97;;;2.00;;
77099;SDS011;66602;48.922;2.414;2024-01-30T15:27:40;1.80;;;1.70;;
77099;SDS011;66602;48.922;2.414;2024-01-30T15:30:06;2.15;;;2.05;;
77099;SDS011;66602;48.922;2.414;2024-01-30T15:32:32;1.15;;;1.08;;
77099;SDS011;66602;48.922;2.414;2024-01-30T15:34:59;2.08;;;1.30;;
77099;SDS011;66602;48.922;2.414;2024-01-30T15:37:28;6.60;;;1.67;;
77099;SDS011;66602;48.922;2.414;2024-01-30T15:39:54;3.65;;;1.33;;
77099;SDS011;66602;48.922;2.414;2024-01-30T15:42:19;1.55;;;1.40;;
77099;SDS011;66602;48.922;2.414;2024-01-30T15:44:45;1.77;;;1.58;;
77099;SDS011;66602;48.922;2.414;2024-01-30T15:47:10;3.00;;;1.38;;
77099;SDS011;66602;48.922;2.414;2024-01-30T15:49:36;5.72;;;1.75;;
77099;SDS011;66602;48.922;2.414;2024-01-30T15:52:01;1.70;;;1.20;;
77099;SDS011;66602;48.922;2.414;2024-01-30T15:54:27;3.92;;;1.52;;
77099;SDS011;66602;48.922;2.414;2024-01-30T15:56:52;4.95;;;3.85;;
77099;SDS011;66602;48.922;2.414;2024-01-30T15:59:18;4.13;;;2.08;;
77099;SDS011;66602;48.922;2.414;2024-01-30T16:01:43;2.97;;;1.85;;
77099;SDS011;66602;48.922;2.414;2024-01-30T16:04:13;11.05;;;1.77;;
77099;SDS011;66602;48.922;2.414;2024-01-30T16:06:39;3.97;;;1.50;;
77099;SDS011;66602;48.922;2.414;2024-01-30T16:09:04;3.33;;;1.65;;
77099;SDS011;66602;48.922;2.414;2024-01-30T16:11:30;2.50;;;2.10;;
77099;SDS011;66602;48.922;2.414;2024-01-30T16:13:57;3.45;;;1.73;;
77099;SDS011;66602;48.922;2.414;2024-01-30T16:16:23;3.45;;;1.75;;
77099;SDS011;66602;48.922;2.414;2024-01-30T16:18:48;2.58;;;1.42;;
77099;SDS011;66602;48.922;2.414;2024-01-30T16:21:14;3.25;;;1.40;;
77099;SDS011;66602;48.922;2.414;2024-01-30T16:23:39;2.22;;;1.83;;
77099;SDS011;66602;48.922;2.414;2024-01-30T16:26:05;1.52;;;1.40;;
77099;SDS011;66602;48.922;2.414;2024-01-30T16:28:31;1.50;;;1.23;;
77099;SDS011;66602;48.922;2.414;2024-01-30T16:30:58;4.90;;;1.52;;
77099;SDS011;66602;48.922;2.414;2024-01-30T16:33:25;4.35;;;2.13;;
77099;SDS011;66602;48.922;2.414;2024-01-30T16:35:51;21.10;;;9.75;;
77099;SDS011;66602;48.922;2.414;2024-01-30T16:38:16;9.00;;;4.60;;
77099;SDS011;66602;48.922;2.414;2024-01-30T16:40:42;8.73;;;5.90;;
77099;SDS011;66602;48.922;2.414;2024-01-30T16:43:07;4.60;;;4.30;;
77099;SDS011;66602;48.922;2.414;2024-01-30T16:45:33;5.38;;;2.85;;
77099;SDS011;66602;48.922;2.414;2024-01-30T16:47:58;2.88;;;2.22;;
77099;SDS011;66602;48.922;2.414;2024-01-30T16:50:24;1.65;;;1.55;;
77099;SDS011;66602;48.922;2.414;2024-01-30T16:52:49;5.00;;;2.63;;
77099;SDS011;66602;48.922;2.414;2024-01-30T16:55:14;6.45;;;1.77;;
77099;SDS011;66602;48.922;2.414;2024-01-30T16:57:41;2.67;;;1.77;;
77099;SDS011;66602;48.922;2.414;2024-01-30T17:00:07;3.33;;;2.17;;
77099;SDS011;66602;48.922;2.414;2024-01-30T17:02:32;3.67;;;1.75;;
77099;SDS011;66602;48.922;2.414;2024-01-30T17:04:58;1.77;;;1.42;;
77099;SDS011;66602;48.922;2.414;2024-01-30T17:07:24;1.98;;;1.30;;
77099;SDS011;66602;48.922;2.414;2024-01-30T17:09:50;5.88;;;1.90;;
77099;SDS011;66602;48.922;2.414;2024-01-30T17:12:15;2.70;;;1.20;;
77099;SDS011;66602;48.922;2.414;2024-01-30T17:14:41;4.25;;;1.50;;
77099;SDS011;66602;48.922;2.414;2024-01-30T17:17:07;3.53;;;1.48;;
77099;SDS011;66602;48.922;2.414;2024-01-30T17:19:34;8.27;;;2.30;;
77099;SDS011;66602;48.922;2.414;2024-01-30T17:22:00;3.08;;;2.10;;
77099;SDS011;66602;48.922;2.414;2024-01-30T17:24:25;3.05;;;2.15;;
77099;SDS011;66602;48.922;2.414;2024-01-30T17:26:51;2.35;;;1.48;;
77099;SDS011;66602;48.922;2.414;2024-01-30T17:29:16;2.05;;;1.83;;
77099;SDS011;66602;48.922;2.414;2024-01-30T17:31:42;1.70;;;1.60;;
77099;SDS011;66602;48.922;2.414;2024-01-30T17:34:10;3.38;;;2.00;;
77099;SDS011;66602;48.922;2.414;2024-01-30T17:36:36;2.25;;;2.05;;
77099;SDS011;66602;48.922;2.414;2024-01-30T17:39:02;1.60;;;1.48;;
77099;SDS011;66602;48.922;2.414;2024-01-30T17:41:28;2.80;;;1.75;;
77099;SDS011;66602;48.922;2.414;2024-01-30T17:44:20;1.92;;;1.83;;
77099;SDS011;66602;48.922;2.414;2024-01-30T17:46:48;8.57;;;2.30;;
77099;SDS011;66602;48.922;2.414;2024-01-30T17:49:13;5.00;;;1.60;;
77099;SDS011;66602;48.922;2.414;2024-01-30T17:51:41;2.22;;;2.00;;
77099;SDS011;66602;48.922;2.414;2024-01-30T17:54:06;1.42;;;1.33;;
77099;SDS011;66602;48.922;2.414;2024-01-30T17:56:32;2.28;;;1.60;;
77099;SDS011;66602;48.922;2.414;2024-01-30T17:59:02;3.85;;;1.88;;